createdAt,value
2023-04-20T00:00:13.300Z,0.40
2023-04-20T00:02:44.311Z,0.60
2023-04-20T00:05:15.457Z,0.50
2023-04-20T00:07:49.291Z,0.60
2023-04-20T00:10:20.181Z,0.50
2023-04-20T00:12:50.959Z,0.83
2023-04-20T00:15:21.948Z,0.40
2023-04-20T00:17:53.728Z,0.50
2023-04-20T00:20:24.540Z,0.70
2023-04-20T00:22:57.828Z,0.37
2023-04-20T00:25:28.661Z,0.47
2023-04-20T00:27:59.634Z,0.40
2023-04-20T00:30:31.042Z,0.40
2023-04-20T00:33:02.370Z,0.60
2023-04-20T00:35:33.545Z,0.30
2023-04-20T00:38:06.821Z,0.50
2023-04-20T00:40:38.001Z,0.40
2023-04-20T00:43:13.717Z,0.40
2023-04-20T00:45:44.675Z,0.40
2023-04-20T00:48:15.662Z,0.40
2023-04-20T00:50:46.879Z,0.50
2023-04-20T00:53:21.655Z,0.47
2023-04-20T00:55:53.228Z,0.40
2023-04-20T00:58:24.137Z,0.50
2023-04-20T01:00:54.997Z,0.50
2023-04-20T01:03:26.077Z,0.57
2023-04-20T01:05:57.042Z,0.50
2023-04-20T01:08:32.540Z,0.40
2023-04-20T01:11:03.969Z,0.50
2023-04-20T01:13:34.714Z,0.37
2023-04-20T01:16:05.756Z,0.63
2023-04-20T01:18:47.151Z,0.40
2023-04-20T01:21:19.393Z,0.50
2023-04-20T01:23:52.263Z,0.47
2023-04-20T01:26:23.585Z,0.47
2023-04-20T01:28:54.522Z,0.40
2023-04-20T01:31:25.520Z,0.50
2023-04-20T01:33:56.786Z,0.47
2023-04-20T01:36:27.895Z,0.50
2023-04-20T01:39:01.531Z,0.97
2023-04-20T01:41:32.833Z,0.60
2023-04-20T01:44:04.184Z,0.50
2023-04-20T01:46:36.041Z,0.67
2023-04-20T01:49:07.439Z,0.50
2023-04-20T01:51:39.601Z,0.40
2023-04-20T01:54:12.845Z,0.43
2023-04-20T01:56:45.067Z,0.60
2023-04-20T01:59:16.613Z,0.33
2023-04-20T02:01:48.137Z,0.40
2023-04-20T02:04:20.014Z,0.90
2023-04-20T02:06:51.681Z,0.50
2023-04-20T02:09:25.211Z,0.60
2023-04-20T02:11:57.861Z,0.50
2023-04-20T02:14:29.487Z,0.50
2023-04-20T02:17:00.637Z,0.47
2023-04-20T02:19:32.028Z,0.53
2023-04-20T02:22:03.737Z,0.63
2023-04-20T02:24:36.890Z,0.60
2023-04-20T02:27:09.107Z,0.50
2023-04-20T02:29:40.062Z,0.63
2023-04-20T02:32:11.823Z,0.70
2023-04-20T02:34:43.391Z,0.40
2023-04-20T02:37:15.397Z,0.77
2023-04-20T02:39:48.416Z,0.60
2023-04-20T02:42:20.571Z,0.50
2023-04-20T02:44:53.643Z,0.73
2023-04-20T02:47:25.373Z,0.70
2023-04-20T02:49:56.974Z,0.60
2023-04-20T02:52:27.991Z,0.63
2023-04-20T02:55:01.752Z,0.73
2023-04-20T02:57:33.317Z,0.60
2023-04-20T03:00:04.553Z,0.77
2023-04-20T03:02:36.493Z,0.80
2023-04-20T03:05:08.221Z,0.73
2023-04-20T03:07:39.558Z,0.83
2023-04-20T03:10:14.976Z,0.60
2023-04-20T03:12:46.486Z,0.70
2023-04-20T03:15:18.195Z,0.63
2023-04-20T03:17:49.843Z,0.70
2023-04-20T03:20:21.419Z,0.80
2023-04-20T03:22:53.102Z,0.70
2023-04-20T03:25:27.065Z,0.63
2023-04-20T03:27:58.645Z,0.70
2023-04-20T03:30:30.196Z,0.93
2023-04-20T03:33:01.658Z,0.90
2023-04-20T03:35:33.267Z,0.70
2023-04-20T03:38:05.387Z,1.00
2023-04-20T03:40:39.349Z,0.90
2023-04-20T03:43:12.250Z,0.83
2023-04-20T03:45:43.420Z,0.60
2023-04-20T03:48:14.346Z,0.80
2023-04-20T03:50:45.820Z,0.90
2023-04-20T03:53:17.290Z,0.83
2023-04-20T03:55:50.654Z,0.70
2023-04-20T03:58:22.874Z,0.80
2023-04-20T04:00:54.130Z,0.70
2023-04-20T04:03:26.206Z,0.77
2023-04-20T04:05:58.242Z,0.80
2023-04-20T04:08:29.321Z,0.70
2023-04-20T04:11:03.720Z,1.23
2023-04-20T04:13:35.186Z,0.83
2023-04-20T04:16:07.889Z,0.77
2023-04-20T04:18:39.474Z,1.00
2023-04-20T04:21:11.684Z,0.93
2023-04-20T04:23:43.812Z,0.70
2023-04-20T04:26:19.533Z,0.73
2023-04-20T04:28:50.741Z,1.10
2023-04-20T04:31:22.759Z,0.90
2023-04-20T04:33:54.431Z,0.90
2023-04-20T04:36:28.026Z,1.70
2023-04-20T04:38:59.477Z,1.30
2023-04-20T04:41:33.861Z,0.90
2023-04-20T04:44:06.948Z,0.73
2023-04-20T04:46:39.104Z,0.80
2023-04-20T04:49:12.058Z,0.70
2023-04-20T04:51:44.229Z,0.83
2023-04-20T04:54:15.398Z,0.80
2023-04-20T04:56:50.772Z,0.70
2023-04-20T04:59:21.799Z,0.80
2023-04-20T05:01:53.437Z,1.30
2023-04-20T05:04:25.508Z,1.30
2023-04-20T05:06:57.177Z,1.10
2023-04-20T05:09:34.808Z,1.30
2023-04-20T05:12:09.910Z,1.40
2023-04-20T05:14:41.066Z,1.23
2023-04-20T05:17:12.759Z,1.13
2023-04-20T05:19:43.767Z,1.20
2023-04-20T05:22:15.308Z,1.10
2023-04-20T05:24:47.312Z,1.33
2023-04-20T05:27:21.379Z,1.20
2023-04-20T05:29:53.179Z,1.00
2023-04-20T05:32:23.973Z,0.97
2023-04-20T05:34:55.676Z,0.97
2023-04-20T05:37:26.709Z,1.00
2023-04-20T05:39:58.047Z,1.00
2023-04-20T05:42:31.499Z,1.03
2023-04-20T05:45:02.885Z,0.87
2023-04-20T05:47:34.776Z,0.90
2023-04-20T05:50:06.850Z,1.03
2023-04-20T05:52:38.393Z,0.70
2023-04-20T05:55:10.899Z,1.03
2023-04-20T05:57:46.144Z,1.10
2023-04-20T06:00:19.547Z,1.00
2023-04-20T06:02:51.154Z,1.00
2023-04-20T06:05:23.034Z,0.87
2023-04-20T06:07:55.103Z,1.17
2023-04-20T06:10:26.741Z,1.20
2023-04-20T06:13:01.552Z,1.10
2023-04-20T06:15:33.312Z,1.20
2023-04-20T06:18:04.961Z,1.17
2023-04-20T06:20:36.479Z,0.93
2023-04-20T06:23:08.494Z,1.00
2023-04-20T06:25:40.913Z,1.00
2023-04-20T06:28:14.370Z,1.07
2023-04-20T06:30:46.448Z,0.83
2023-04-20T06:33:18.350Z,0.77
2023-04-20T06:35:49.976Z,1.10
2023-04-20T06:38:22.567Z,1.37
2023-04-20T06:40:54.212Z,1.10
2023-04-20T06:43:27.819Z,1.17
2023-04-20T06:45:59.586Z,1.07
2023-04-20T06:48:33.057Z,1.00
2023-04-20T06:51:05.109Z,0.90
2023-04-20T06:53:36.836Z,0.97
2023-04-20T06:56:08.775Z,1.00
2023-04-20T06:58:42.215Z,0.97
2023-04-20T07:01:13.999Z,1.27
2023-04-20T07:03:47.960Z,1.03
2023-04-20T07:06:20.352Z,1.07
2023-04-20T07:08:52.714Z,0.77
2023-04-20T07:11:24.412Z,1.00
2023-04-20T07:13:58.456Z,1.00
2023-04-20T07:16:30.210Z,0.97
2023-04-20T07:19:02.208Z,1.00
2023-04-20T07:21:34.319Z,1.47
2023-04-20T07:24:06.411Z,1.07
2023-04-20T07:26:37.616Z,0.90
2023-04-20T07:29:11.081Z,0.87
2023-04-20T07:31:42.237Z,1.10
2023-04-20T07:34:13.968Z,1.20
2023-04-20T07:36:45.977Z,0.97
2023-04-20T07:39:18.305Z,1.10
2023-04-20T07:41:50.376Z,0.80
2023-04-20T07:44:24.101Z,1.20
2023-04-20T07:46:56.474Z,0.97
2023-04-20T07:49:29.019Z,1.10
2023-04-20T07:52:12.957Z,1.13
2023-04-20T07:54:48.456Z,1.30
2023-04-20T07:57:20.173Z,0.87
2023-04-20T07:59:54.752Z,1.00
2023-04-20T08:02:27.113Z,1.07
2023-04-20T08:04:58.846Z,1.30
2023-04-20T08:07:30.305Z,1.83
2023-04-20T08:10:03.868Z,1.07
2023-04-20T08:12:35.389Z,1.20
2023-04-20T08:15:10.168Z,1.40
2023-04-20T08:17:42.576Z,1.67
2023-04-20T08:20:15.143Z,1.20
2023-04-20T08:22:46.684Z,1.20
2023-04-20T08:25:18.200Z,1.27
2023-04-20T08:27:50.097Z,1.20
2023-04-20T08:30:23.763Z,1.10
2023-04-20T08:32:55.698Z,1.20
2023-04-20T08:35:27.074Z,1.10
2023-04-20T08:37:58.728Z,0.90
2023-04-20T08:40:30.864Z,1.10
2023-04-20T08:43:02.547Z,1.30
2023-04-20T08:45:36.199Z,1.27
2023-04-20T08:48:11.560Z,1.20
2023-04-20T08:50:45.645Z,1.63
2023-04-20T08:53:17.108Z,1.23
2023-04-20T08:55:48.618Z,1.10
2023-04-20T08:58:21.104Z,1.03
2023-04-20T09:00:54.728Z,1.27
2023-04-20T09:03:39.485Z,1.30
2023-04-20T09:06:18.252Z,1.10
2023-04-20T09:08:50.534Z,1.03
2023-04-20T09:11:26.112Z,1.20
2023-04-20T09:14:05.658Z,1.40
2023-04-20T09:16:40.548Z,1.27
2023-04-20T09:19:13.963Z,1.70
2023-04-20T09:21:53.428Z,0.90
2023-04-20T09:24:25.695Z,1.07
2023-04-20T09:26:57.648Z,1.07
2023-04-20T09:29:29.120Z,0.80
2023-04-20T09:32:03.327Z,1.30
2023-04-20T09:34:46.030Z,1.10
2023-04-20T09:37:19.622Z,1.63
2023-04-20T09:39:51.221Z,1.40
2023-04-20T09:42:22.942Z,1.10
2023-04-20T09:44:54.817Z,1.00
2023-04-20T09:47:30.814Z,1.37
2023-04-20T09:50:14.024Z,1.00
2023-04-20T09:52:53.106Z,1.00
2023-04-20T09:55:24.819Z,1.13
2023-04-20T09:57:58.116Z,1.03
2023-04-20T10:00:31.205Z,1.10
2023-04-20T10:03:05.998Z,1.10
2023-04-20T10:05:40.610Z,1.30
2023-04-20T10:08:12.734Z,1.23
2023-04-20T10:10:48.953Z,1.10
2023-04-20T10:13:23.369Z,1.27
2023-04-20T10:15:55.530Z,1.17
2023-04-20T10:18:29.951Z,1.10
2023-04-20T10:21:11.079Z,1.20
2023-04-20T10:23:51.898Z,1.10
2023-04-20T10:26:23.575Z,1.00
2023-04-20T10:28:55.200Z,1.17
2023-04-20T10:31:26.538Z,1.20
2023-04-20T10:34:00.708Z,1.03
2023-04-20T10:36:35.028Z,1.30
2023-04-20T10:39:19.681Z,1.07
2023-04-20T10:41:57.787Z,1.13
2023-04-20T10:44:29.298Z,1.00
2023-04-20T10:47:01.298Z,1.47
2023-04-20T10:49:35.530Z,1.20
2023-04-20T10:52:07.015Z,1.07
2023-04-20T10:54:41.741Z,1.00
2023-04-20T10:57:19.979Z,1.00
2023-04-20T10:59:51.726Z,0.90
2023-04-20T11:02:23.809Z,1.60
2023-04-20T11:05:01.950Z,1.20
2023-04-20T11:07:34.715Z,1.10
2023-04-20T11:10:06.866Z,1.10
2023-04-20T11:12:43.309Z,1.17
2023-04-20T11:15:15.780Z,1.00
2023-04-20T11:17:47.873Z,1.00
2023-04-20T11:20:21.887Z,1.10
2023-04-20T11:23:00.918Z,0.93
2023-04-20T11:25:32.784Z,0.90
2023-04-20T11:28:10.818Z,0.97
2023-04-20T11:30:46.257Z,1.00
2023-04-20T11:33:18.605Z,1.07
2023-04-20T11:35:52.767Z,0.77
2023-04-20T11:38:35.058Z,1.00
2023-04-20T11:41:08.789Z,1.20
2023-04-20T11:43:40.449Z,0.90
2023-04-20T11:46:18.516Z,1.10
2023-04-20T11:48:52.095Z,1.00
2023-04-20T11:51:25.837Z,1.00
2023-04-20T11:53:57.644Z,0.90
2023-04-20T11:56:29.256Z,0.90
2023-04-20T11:59:00.031Z,1.07
2023-04-20T12:01:31.383Z,1.20
2023-04-20T12:04:02.971Z,1.13
2023-04-20T12:06:37.192Z,1.10
2023-04-20T12:09:09.280Z,0.90
2023-04-20T12:11:41.251Z,1.20
2023-04-20T12:14:12.526Z,0.97
2023-04-20T12:16:45.030Z,1.20
2023-04-20T12:19:17.204Z,1.50
2023-04-20T12:21:51.200Z,0.80
2023-04-20T12:24:23.060Z,0.87
2023-04-20T12:26:54.761Z,1.10
2023-04-20T12:29:26.277Z,1.50
2023-04-20T12:31:57.861Z,0.87
2023-04-20T12:34:30.809Z,0.90
2023-04-20T12:37:04.737Z,1.07
2023-04-20T12:39:35.925Z,1.10
2023-04-20T12:42:07.468Z,1.00
2023-04-20T12:44:39.143Z,0.80
2023-04-20T12:47:10.885Z,1.30
2023-04-20T12:49:42.044Z,1.00
2023-04-20T12:52:16.005Z,1.30
2023-04-20T12:54:47.213Z,1.30
2023-04-20T12:57:18.771Z,1.10
2023-04-20T12:59:51.030Z,1.10
2023-04-20T13:02:22.212Z,1.40
2023-04-20T13:04:53.894Z,1.30
2023-04-20T13:07:29.427Z,1.10
2023-04-20T13:10:01.499Z,1.27
2023-04-20T13:12:33.141Z,1.10
2023-04-20T13:15:04.728Z,1.23
2023-04-20T13:17:36.328Z,0.90
2023-04-20T13:20:08.930Z,1.10
2023-04-20T13:22:50.740Z,1.07
2023-04-20T13:25:29.291Z,1.10
2023-04-20T13:28:00.909Z,1.30
2023-04-20T13:30:32.611Z,1.20
2023-04-20T13:33:04.262Z,1.20
2023-04-20T13:35:37.199Z,1.17
2023-04-20T13:38:11.170Z,1.40
2023-04-20T13:40:42.641Z,1.53
2023-04-20T13:43:14.718Z,1.10
2023-04-20T13:45:46.312Z,1.20
2023-04-20T13:48:17.900Z,1.10
2023-04-20T13:50:49.458Z,1.20
2023-04-20T13:53:23.435Z,1.10
2023-04-20T13:55:55.448Z,1.23
2023-04-20T13:58:26.926Z,1.47
2023-04-20T14:00:58.489Z,1.00
2023-04-20T14:03:30.903Z,1.03
2023-04-20T14:06:02.641Z,1.10
2023-04-20T14:08:36.177Z,1.40
2023-04-20T14:11:07.749Z,1.30
2023-04-20T14:13:40.111Z,1.30
2023-04-20T14:16:13.128Z,1.33
2023-04-20T14:18:45.375Z,1.30
2023-04-20T14:21:16.740Z,1.30
2023-04-20T14:23:54.323Z,1.47
2023-04-20T14:26:28.498Z,1.77
2023-04-20T14:28:59.935Z,1.47
2023-04-20T14:31:31.565Z,1.43
2023-04-20T14:34:03.495Z,1.60
2023-04-20T14:36:37.251Z,0.93
2023-04-20T14:39:10.336Z,1.00
2023-04-20T14:41:42.217Z,1.00
2023-04-20T14:44:13.744Z,1.20
2023-04-20T14:46:45.482Z,1.33
2023-04-20T14:49:17.161Z,1.40
2023-04-20T14:51:49.268Z,1.20
2023-04-20T14:54:23.348Z,1.30
2023-04-20T14:56:55.102Z,1.27
2023-04-20T14:59:27.106Z,0.97
2023-04-20T15:02:03.011Z,1.20
2023-04-20T15:04:35.388Z,1.00
2023-04-20T15:07:07.510Z,1.30
2023-04-20T15:09:40.592Z,1.00
2023-04-20T15:12:11.831Z,1.20
2023-04-20T15:14:43.161Z,1.30
2023-04-20T15:17:16.004Z,0.93
2023-04-20T15:19:47.513Z,0.90
2023-04-20T15:22:19.179Z,1.07
2023-04-20T15:24:52.774Z,1.33
2023-04-20T15:27:24.145Z,0.90
2023-04-20T15:29:55.209Z,1.00
2023-04-20T15:32:26.841Z,0.90
2023-04-20T15:34:58.398Z,1.20
2023-04-20T15:37:29.894Z,0.73
2023-04-20T15:40:03.552Z,0.80
2023-04-20T15:42:34.981Z,1.10
2023-04-20T15:45:07.002Z,1.00
2023-04-20T15:47:38.252Z,1.00
2023-04-20T15:50:10.633Z,1.10
2023-04-20T15:52:42.382Z,1.00
2023-04-20T15:55:15.680Z,1.30
2023-04-20T15:57:47.572Z,1.10
2023-04-20T16:00:20.287Z,1.00
2023-04-20T16:02:52.206Z,1.20
2023-04-20T16:05:24.096Z,1.00
2023-04-20T16:07:55.704Z,1.13
2023-04-20T16:10:30.097Z,0.93
2023-04-20T16:13:01.571Z,0.90
2023-04-20T16:15:35.811Z,1.00
2023-04-20T16:18:07.429Z,0.77
2023-04-20T16:20:41.211Z,0.90
2023-04-20T16:23:13.986Z,0.77
2023-04-20T16:25:48.211Z,0.97
2023-04-20T16:28:19.219Z,0.80
2023-04-20T16:30:50.621Z,1.00
2023-04-20T16:33:22.702Z,0.90
2023-04-20T16:35:54.266Z,0.93
2023-04-20T16:38:25.988Z,0.90
2023-04-20T16:40:59.852Z,0.80
2023-04-20T16:43:31.150Z,1.00
2023-04-20T16:46:02.499Z,0.70
2023-04-20T16:48:34.763Z,0.90
2023-04-20T16:51:06.418Z,0.70
2023-04-20T16:53:38.257Z,0.77
2023-04-20T16:56:11.863Z,0.70
2023-04-20T16:58:43.497Z,0.90
2023-04-20T17:01:16.141Z,0.93
2023-04-20T17:03:48.612Z,0.90
2023-04-20T17:06:21.334Z,0.70
2023-04-20T17:08:53.201Z,0.73
2023-04-20T17:11:25.888Z,0.83
2023-04-20T17:13:57.796Z,0.80
2023-04-20T17:16:28.970Z,0.70
2023-04-20T17:19:00.598Z,0.70
2023-04-20T17:21:32.127Z,0.67
2023-04-20T17:24:03.943Z,0.70
2023-04-20T17:26:37.692Z,0.80
2023-04-20T17:29:09.354Z,0.90
2023-04-20T17:31:41.287Z,0.50
2023-04-20T17:34:12.689Z,0.70
2023-04-20T17:36:44.792Z,0.80
2023-04-20T17:39:16.861Z,0.83
2023-04-20T17:41:50.869Z,0.87
2023-04-20T17:44:22.345Z,0.50
2023-04-20T17:46:54.333Z,0.70
2023-04-20T17:49:25.947Z,0.53
2023-04-20T17:51:57.665Z,0.67
2023-04-20T17:54:29.505Z,0.60
2023-04-20T17:57:03.243Z,0.60
2023-04-20T17:59:34.525Z,0.50
2023-04-20T18:02:06.934Z,0.53
2023-04-20T18:04:40.051Z,0.60
2023-04-20T18:07:14.097Z,0.80
2023-04-20T18:09:46.575Z,0.70
2023-04-20T18:12:20.270Z,0.63
2023-04-20T18:14:51.346Z,0.60
2023-04-20T18:17:23.247Z,0.67
2023-04-20T18:19:54.763Z,0.60
2023-04-20T18:22:26.342Z,0.60
2023-04-20T18:24:57.699Z,0.80
2023-04-20T18:27:32.002Z,0.83
2023-04-20T18:30:03.809Z,0.63
2023-04-20T18:32:38.265Z,0.50
2023-04-20T18:35:10.499Z,0.50
2023-04-20T18:37:41.863Z,0.40
2023-04-20T18:40:16.180Z,0.70
2023-04-20T18:42:50.175Z,0.40
2023-04-20T18:45:22.792Z,0.60
2023-04-20T18:47:54.398Z,0.57
2023-04-20T18:50:26.093Z,0.80
2023-04-20T18:52:57.784Z,0.60
2023-04-20T18:55:29.506Z,0.80
2023-04-20T18:58:03.460Z,0.60
2023-04-20T19:00:35.266Z,0.60
2023-04-20T19:03:07.300Z,0.43
2023-04-20T19:05:39.952Z,0.80
2023-04-20T19:08:11.712Z,0.90
2023-04-20T19:10:43.082Z,0.70
2023-04-20T19:13:18.350Z,0.40
2023-04-20T19:15:50.764Z,0.83
2023-04-20T19:18:22.212Z,0.60
2023-04-20T19:20:53.364Z,0.70
2023-04-20T19:23:24.724Z,0.70
2023-04-20T19:25:56.615Z,0.93
2023-04-20T19:28:30.991Z,1.10
2023-04-20T19:31:03.533Z,0.87
2023-04-20T19:33:35.248Z,0.80
2023-04-20T19:36:08.019Z,0.90
2023-04-20T19:38:40.511Z,1.23
2023-04-20T19:41:11.870Z,1.00
2023-04-20T19:43:45.390Z,0.93
2023-04-20T19:46:17.116Z,1.00
2023-04-20T19:48:48.527Z,1.10
2023-04-20T19:51:20.278Z,1.07
2023-04-20T19:53:51.852Z,1.50
2023-04-20T19:56:24.230Z,1.00
2023-04-20T19:58:57.438Z,1.40
2023-04-20T20:01:29.084Z,1.00
2023-04-20T20:04:00.597Z,1.27
2023-04-20T20:06:33.166Z,1.23
2023-04-20T20:09:05.760Z,1.10
2023-04-20T20:11:37.227Z,1.10
2023-04-20T20:14:11.886Z,1.30
2023-04-20T20:16:43.570Z,1.20
2023-04-20T20:19:15.546Z,0.80
2023-04-20T20:21:47.495Z,1.10
2023-04-20T20:24:19.583Z,1.07
2023-04-20T20:26:51.431Z,1.17
2023-04-20T20:29:24.481Z,1.30
2023-04-20T20:31:56.218Z,1.30
2023-04-20T20:34:29.001Z,1.10
2023-04-20T20:37:01.373Z,1.20
2023-04-20T20:39:33.544Z,1.20
2023-04-20T20:42:05.910Z,1.20
2023-04-20T20:44:41.080Z,1.37
2023-04-20T20:47:12.688Z,1.60
2023-04-20T20:49:44.960Z,1.40
2023-04-20T20:52:15.857Z,1.23
2023-04-20T20:54:47.150Z,1.00
2023-04-20T20:57:18.545Z,1.63
2023-04-20T20:59:53.667Z,1.50
2023-04-20T21:02:25.903Z,1.40
2023-04-20T21:04:57.606Z,1.57
2023-04-20T21:07:29.171Z,1.40
2023-04-20T21:10:01.002Z,1.40
2023-04-20T21:12:32.833Z,1.47
2023-04-20T21:15:07.254Z,1.20
2023-04-20T21:17:39.366Z,1.27
2023-04-20T21:20:11.971Z,0.80
2023-04-20T21:22:43.885Z,1.17
2023-04-20T21:25:15.574Z,1.07
2023-04-20T21:27:46.393Z,1.30
2023-04-20T21:30:21.757Z,0.90
2023-04-20T21:32:53.553Z,1.30
2023-04-20T21:35:25.154Z,0.90
2023-04-20T21:37:56.193Z,1.20
2023-04-20T21:40:28.455Z,0.90
2023-04-20T21:43:00.116Z,0.73
2023-04-20T21:45:33.565Z,0.80
2023-04-20T21:48:05.208Z,0.73
2023-04-20T21:50:37.091Z,0.77
2023-04-20T21:53:08.119Z,0.73
2023-04-20T21:55:39.747Z,0.90
2023-04-20T21:58:11.066Z,0.90
2023-04-20T22:00:44.687Z,0.80
2023-04-20T22:03:17.101Z,0.90
2023-04-20T22:05:49.036Z,1.30
2023-04-20T22:08:23.120Z,1.10
2023-04-20T22:10:55.800Z,1.20
2023-04-20T22:13:27.297Z,0.97
2023-04-20T22:16:00.913Z,1.10
2023-04-20T22:18:32.925Z,1.10
2023-04-20T22:21:04.622Z,1.20
2023-04-20T22:23:35.960Z,1.03
2023-04-20T22:26:07.352Z,0.90
2023-04-20T22:28:38.806Z,1.20
2023-04-20T22:31:12.558Z,0.90
2023-04-20T22:33:44.222Z,1.20
2023-04-20T22:36:15.518Z,0.90
2023-04-20T22:38:46.688Z,0.90
2023-04-20T22:41:18.455Z,1.00
2023-04-20T22:43:49.931Z,1.00
2023-04-20T22:46:23.491Z,1.00
2023-04-20T22:48:55.314Z,1.13
2023-04-20T22:51:27.065Z,0.97
2023-04-20T22:54:03.129Z,1.03
2023-04-20T22:56:34.258Z,0.90
2023-04-20T22:59:05.322Z,0.77
2023-04-20T23:01:38.168Z,0.90
2023-04-20T23:04:09.502Z,1.10
2023-04-20T23:06:40.386Z,0.90
2023-04-20T23:09:11.558Z,1.00
2023-04-20T23:11:44.511Z,1.20
2023-04-20T23:14:15.390Z,0.80
2023-04-20T23:16:48.810Z,0.90
2023-04-20T23:19:20.027Z,0.70
2023-04-20T23:21:51.342Z,0.90
2023-04-20T23:24:23.353Z,1.00
2023-04-20T23:26:54.902Z,0.90
2023-04-20T23:29:27.418Z,1.17
2023-04-20T23:32:01.260Z,0.80
2023-04-20T23:34:33.729Z,0.83
2023-04-20T23:37:07.153Z,0.80
2023-04-20T23:39:40.636Z,0.90
2023-04-20T23:42:12.530Z,0.80
2023-04-20T23:44:43.971Z,0.90
2023-04-20T23:47:17.145Z,1.00
2023-04-20T23:49:48.995Z,1.17
2023-04-20T23:52:19.768Z,0.90
2023-04-20T23:54:50.564Z,1.03
2023-04-20T23:57:21.938Z,1.13
2023-04-20T23:59:53.362Z,0.90
